createdAt,value
2018-03-29T06:07:37.394Z,1016
2018-03-29T06:08:02.886Z,988
2018-03-29T06:08:28.391Z,988
2018-03-29T06:08:53.871Z,944
2018-03-29T06:09:19.340Z,1012
2018-03-29T06:09:44.870Z,968
2018-03-29T06:10:10.358Z,1020
2018-03-29T06:10:35.863Z,1116
2018-03-29T06:11:01.363Z,1256
2018-03-29T06:11:26.856Z,1396
2018-03-29T06:11:52.349Z,1384
2018-03-29T06:12:17.828Z,1244
2018-03-29T06:12:43.371Z,1264
2018-03-29T06:13:08.870Z,1332
2018-03-29T06:13:34.343Z,1416
2018-03-29T06:13:59.830Z,1420
2018-03-29T06:14:25.357Z,1420
2018-03-29T06:14:50.812Z,1376
2018-03-29T06:15:16.355Z,1456
2018-03-29T06:15:41.932Z,1472
2018-03-29T06:16:07.450Z,1652
2018-03-29T06:16:32.958Z,1828
2018-03-29T06:16:58.557Z,1832
2018-03-29T06:17:24.053Z,1776
2018-03-29T06:17:49.604Z,1792
2018-03-29T06:18:15.035Z,1796
2018-03-29T06:18:40.513Z,1748
2018-03-29T06:19:06.029Z,1648
2018-03-29T06:19:31.503Z,1604
2018-03-29T06:19:57.013Z,1768
2018-03-29T06:20:22.588Z,1920
2018-03-29T06:20:48.096Z,2072
2018-03-29T06:21:13.572Z,2148
2018-03-29T06:21:39.062Z,2192
2018-03-29T06:22:04.586Z,2340
2018-03-29T06:22:30.094Z,2212
2018-03-29T06:22:55.609Z,2200
2018-03-29T06:23:21.148Z,2200
2018-03-29T06:23:46.595Z,2228
2018-03-29T06:24:12.140Z,2224
2018-03-29T06:24:37.687Z,2172
2018-03-29T06:25:03.120Z,2044
2018-03-29T06:25:28.609Z,2064
2018-03-29T06:25:54.140Z,2056
2018-03-29T06:26:19.703Z,2148
2018-03-29T06:26:45.182Z,2196
2018-03-29T06:27:10.763Z,2152
2018-03-29T06:27:36.206Z,2096
2018-03-29T06:28:01.702Z,1896
2018-03-29T06:28:27.170Z,1852
2018-03-29T06:28:52.662Z,2028
2018-03-29T06:29:18.142Z,2284
2018-03-29T06:29:43.641Z,2328
2018-03-29T06:30:09.156Z,2248
2018-03-29T06:30:34.633Z,2136
2018-03-29T06:31:00.137Z,1972
2018-03-29T06:31:25.664Z,1732
2018-03-29T06:31:51.160Z,1640
2018-03-29T06:32:16.713Z,1792
2018-03-29T06:32:42.179Z,1952
2018-03-29T06:33:07.669Z,2044
2018-03-29T06:33:33.152Z,2012
2018-03-29T06:33:58.646Z,2112
2018-03-29T06:34:24.107Z,2208
2018-03-29T06:34:49.637Z,2244
2018-03-29T06:35:15.167Z,2236
2018-03-29T06:35:40.723Z,2168
2018-03-29T06:36:06.431Z,1852
2018-03-29T06:36:31.970Z,1464
2018-03-29T06:36:57.482Z,1276
2018-03-29T06:37:23.113Z,1416
2018-03-29T06:37:48.888Z,1572
2018-03-29T06:38:14.524Z,1620
2018-03-29T06:38:40.214Z,1676
2018-03-29T06:39:05.786Z,1904
2018-03-29T06:39:31.273Z,2404
2018-03-29T06:39:56.848Z,2676
2018-03-29T06:40:22.354Z,2824
2018-03-29T06:40:47.990Z,2776
2018-03-29T06:41:13.412Z,2652
2018-03-29T06:41:41.430Z,2876
2018-03-29T06:42:06.981Z,3244
2018-03-29T06:42:32.547Z,3468
2018-03-29T06:42:58.157Z,3760
2018-03-29T06:43:23.611Z,4096
2018-03-29T06:43:49.127Z,4024
2018-03-29T06:44:14.630Z,4004
2018-03-29T06:44:40.179Z,4000
2018-03-29T06:45:05.609Z,4088
2018-03-29T06:45:31.318Z,4296
2018-03-29T06:45:56.880Z,4380
2018-03-29T06:46:22.460Z,4308
2018-03-29T06:46:47.917Z,3908
2018-03-29T06:47:13.791Z,3576
2018-03-29T06:47:39.406Z,3152
2018-03-29T06:48:04.927Z,2812
2018-03-29T06:48:30.622Z,2528
2018-03-29T06:48:56.909Z,2288
2018-03-29T06:49:22.483Z,2276
2018-03-29T06:49:48.095Z,2432
2018-03-29T06:50:13.580Z,2516
2018-03-29T06:50:39.190Z,2560
2018-03-29T06:51:04.658Z,2652
2018-03-29T06:51:30.256Z,2820
2018-03-29T06:51:55.897Z,3064
2018-03-29T06:52:21.478Z,3348
2018-03-29T06:52:47.001Z,3632
2018-03-29T06:53:12.517Z,3876
2018-03-29T06:53:38.024Z,4120
2018-03-29T06:54:03.674Z,4368
2018-03-29T06:54:29.260Z,4540
2018-03-29T06:54:54.768Z,4716
2018-03-29T06:55:20.333Z,4936
2018-03-29T06:55:46.101Z,5072
2018-03-29T06:56:11.488Z,5204
2018-03-29T06:56:36.938Z,5444
2018-03-29T06:57:02.457Z,5788
2018-03-29T06:57:27.931Z,6132
2018-03-29T06:57:53.425Z,6388
2018-03-29T06:58:19.108Z,6740
2018-03-29T06:58:44.591Z,6708
2018-03-29T06:59:10.094Z,6168
2018-03-29T06:59:36.302Z,5728
2018-03-29T07:00:01.876Z,5164
2018-03-29T07:00:27.489Z,4956
2018-03-29T07:00:52.914Z,5212
2018-03-29T07:01:18.481Z,5308
2018-03-29T07:02:31.881Z,3500
2018-03-29T07:03:00.524Z,3476
2018-03-29T07:03:25.979Z,3264
2018-03-29T07:03:51.862Z,2772
2018-03-29T07:04:17.479Z,2444
2018-03-29T07:04:42.998Z,2232
2018-03-29T07:05:08.499Z,2104
2018-03-29T07:05:33.984Z,1880
2018-03-29T07:05:59.489Z,1752
2018-03-29T07:06:25.002Z,1972
2018-03-29T07:06:50.713Z,2144
2018-03-29T07:07:16.465Z,2304
2018-03-29T07:07:42.095Z,2512
2018-03-29T07:08:07.659Z,2920
2018-03-29T07:08:33.236Z,3248
2018-03-29T07:08:58.909Z,3260
2018-03-29T07:09:24.639Z,2964
2018-03-29T07:09:50.327Z,2796
2018-03-29T07:10:15.829Z,2832
2018-03-29T07:10:41.472Z,2884
2018-03-29T07:11:06.903Z,2720
2018-03-29T07:11:32.436Z,2624
2018-03-29T07:11:57.977Z,2664
2018-03-29T07:12:23.455Z,2496
2018-03-29T07:12:48.967Z,2364
2018-03-29T07:13:14.429Z,2608
2018-03-29T07:13:39.990Z,2792
2018-03-29T07:14:05.668Z,2716
2018-03-29T07:14:31.307Z,2508
2018-03-29T07:14:57.398Z,2480
2018-03-29T07:15:22.975Z,2488
2018-03-29T07:15:48.571Z,2272
2018-03-29T07:16:14.008Z,1944
2018-03-29T07:16:39.772Z,1832
2018-03-29T07:17:05.381Z,2128
2018-03-29T07:17:31.067Z,2568
2018-03-29T07:17:57.116Z,2848
2018-03-29T07:18:22.953Z,3036
2018-03-29T07:18:48.489Z,3196
2018-03-29T07:19:13.944Z,3268
2018-03-29T07:19:39.421Z,3184
2018-03-29T07:20:04.934Z,2916
2018-03-29T07:20:30.437Z,2596
2018-03-29T07:20:55.926Z,2700
2018-03-29T07:21:21.442Z,2992
2018-03-29T07:21:47.010Z,2944
2018-03-29T07:22:12.513Z,2916
2018-03-29T07:22:38.030Z,2828
2018-03-29T07:23:03.509Z,2780
2018-03-29T07:23:29.028Z,2788
2018-03-29T07:23:54.689Z,2640
2018-03-29T07:24:20.250Z,2468
2018-03-29T07:24:45.831Z,2468
2018-03-29T07:25:11.317Z,2432
2018-03-29T07:25:37.120Z,2468
2018-03-29T07:26:02.723Z,2832
2018-03-29T07:26:28.207Z,3268
2018-03-29T07:26:53.728Z,3736
2018-03-29T07:27:19.338Z,4124
2018-03-29T07:27:44.943Z,4272
2018-03-29T07:28:10.454Z,4028
2018-03-29T07:28:35.989Z,3564
2018-03-29T07:29:01.519Z,3216
2018-03-29T07:29:27.046Z,3008
2018-03-29T07:29:52.545Z,2968
2018-03-29T07:30:18.061Z,2784
2018-03-29T07:30:43.538Z,2476
2018-03-29T07:31:09.110Z,2292
2018-03-29T07:31:34.640Z,2168
2018-03-29T07:32:00.214Z,2308
2018-03-29T07:32:25.708Z,2916
2018-03-29T07:32:51.278Z,3472
2018-03-29T07:33:16.717Z,4176
2018-03-29T07:33:42.266Z,4488
2018-03-29T07:34:07.789Z,4672
2018-03-29T07:34:33.261Z,4880
2018-03-29T07:34:58.874Z,4996
2018-03-29T07:35:24.431Z,5020
2018-03-29T07:35:50.008Z,5004
2018-03-29T07:36:15.549Z,4884
2018-03-29T07:36:41.004Z,4748
2018-03-29T07:37:06.535Z,4556
2018-03-29T07:37:32.089Z,4436
2018-03-29T07:37:57.670Z,4416
2018-03-29T07:38:23.188Z,4548
2018-03-29T07:38:48.796Z,4724
2018-03-29T07:39:14.323Z,4812
2018-03-29T07:39:39.797Z,4724
2018-03-29T07:40:05.344Z,4524
2018-03-29T07:40:30.861Z,4216
2018-03-29T07:40:56.348Z,3844
2018-03-29T07:41:21.876Z,3480
2018-03-29T07:41:47.386Z,3388
2018-03-29T07:42:12.969Z,3652
2018-03-29T07:42:38.463Z,3832
2018-03-29T07:43:03.976Z,3692
2018-03-29T07:43:29.478Z,3576
2018-03-29T07:43:55.030Z,3472
2018-03-29T07:44:20.556Z,3372
2018-03-29T07:44:46.130Z,3252
2018-03-29T07:45:11.693Z,3200
2018-03-29T07:45:37.188Z,3368
2018-03-29T07:46:02.683Z,3748
2018-03-29T07:46:28.178Z,4168
2018-03-29T07:46:53.686Z,4388
2018-03-29T07:47:19.211Z,4688
2018-03-29T07:47:44.734Z,4864
2018-03-29T07:48:10.246Z,4896
2018-03-29T07:48:35.726Z,5004
2018-03-29T07:49:01.278Z,5148
2018-03-29T07:50:15.095Z,5400
2018-03-29T07:50:40.600Z,5448
2018-03-29T07:51:06.149Z,5252
2018-03-29T07:51:31.706Z,5068
2018-03-29T07:51:57.249Z,4972
2018-03-29T07:52:22.705Z,4936
2018-03-29T07:52:48.212Z,5128
2018-03-29T07:53:13.794Z,5440
2018-03-29T07:53:39.309Z,5860
2018-03-29T07:54:04.827Z,6320
2018-03-29T07:54:30.324Z,6944
2018-03-29T07:54:55.834Z,7572
2018-03-29T07:55:21.299Z,8040
2018-03-29T07:55:46.801Z,8200
2018-03-29T07:56:12.357Z,7792
2018-03-29T07:56:37.886Z,7032
2018-03-29T07:57:03.385Z,6624
2018-03-29T07:57:28.883Z,6476
2018-03-29T07:57:54.469Z,6264
2018-03-29T07:58:19.921Z,6112
2018-03-29T07:58:45.397Z,6176
2018-03-29T07:59:11.020Z,6720
2018-03-29T07:59:36.557Z,7480
2018-03-29T08:00:02.082Z,7604
2018-03-29T08:00:27.618Z,7380
2018-03-29T08:00:53.112Z,7320
2018-03-29T08:01:18.636Z,7132
2018-03-29T08:01:44.179Z,6860
2018-03-29T08:02:09.711Z,6700
2018-03-29T08:02:35.194Z,6776
2018-03-29T08:03:00.709Z,6688
2018-03-29T08:03:26.171Z,6432
2018-03-29T08:03:51.827Z,6012
2018-03-29T08:04:17.347Z,5592
2018-03-29T08:04:42.859Z,5232
2018-03-29T08:05:08.345Z,5008
2018-03-29T08:05:33.854Z,4908
2018-03-29T08:05:59.386Z,4840
2018-03-29T08:06:24.894Z,4804
2018-03-29T08:06:50.391Z,4792
2018-03-29T08:07:15.891Z,4704
2018-03-29T08:07:41.346Z,4528
2018-03-29T08:08:06.832Z,4492
2018-03-29T08:08:32.314Z,4628
2018-03-29T08:08:57.827Z,4840
2018-03-29T08:09:23.301Z,5068
2018-03-29T08:09:48.794Z,5324
2018-03-29T08:10:14.319Z,5616
2018-03-29T08:10:39.790Z,5780
2018-03-29T08:11:05.339Z,5920
2018-03-29T08:11:30.866Z,6096
2018-03-29T08:11:56.351Z,6368
2018-03-29T08:12:21.897Z,6564
2018-03-29T08:12:47.331Z,6548
2018-03-29T08:13:12.807Z,6532
2018-03-29T08:13:38.304Z,6788
2018-03-29T08:14:03.808Z,7088
2018-03-29T08:14:29.345Z,7352
2018-03-29T08:14:54.820Z,7424
2018-03-29T08:15:20.374Z,7540
2018-03-29T08:15:45.847Z,7748
2018-03-29T08:16:11.369Z,7824
2018-03-29T08:16:36.856Z,7912
2018-03-29T08:17:02.341Z,7848
2018-03-29T08:17:27.902Z,8080
2018-03-29T08:17:53.384Z,8244
2018-03-29T08:18:18.924Z,8140
2018-03-29T08:18:44.438Z,7764
2018-03-29T08:19:09.962Z,7248
2018-03-29T08:19:35.462Z,6892
2018-03-29T08:20:01.007Z,6612
2018-03-29T08:20:26.533Z,6360
2018-03-29T08:20:51.983Z,5984
2018-03-29T08:21:17.613Z,5524
2018-03-29T08:21:43.283Z,5128
2018-03-29T08:22:08.736Z,5004
2018-03-29T08:22:34.217Z,4876
2018-03-29T08:22:59.714Z,4552
2018-03-29T08:23:25.254Z,4232
2018-03-29T08:23:50.734Z,4160
2018-03-29T08:24:16.302Z,4224
2018-03-29T08:24:41.814Z,4316
2018-03-29T08:25:07.352Z,4232
2018-03-29T08:25:32.955Z,4044
2018-03-29T08:25:58.761Z,3892
2018-03-29T08:26:24.229Z,3956
2018-03-29T08:26:49.737Z,4444
2018-03-29T08:27:15.241Z,5128
2018-03-29T08:27:40.725Z,5884
2018-03-29T08:28:06.216Z,6616
2018-03-29T08:28:31.760Z,7192
2018-03-29T08:28:57.319Z,7568
2018-03-29T08:29:22.849Z,7672
2018-03-29T08:29:48.406Z,7580
2018-03-29T08:30:13.945Z,7244
2018-03-29T08:30:39.486Z,6940
2018-03-29T08:31:04.978Z,6628
2018-03-29T08:31:30.466Z,6092
2018-03-29T08:31:55.973Z,5368
2018-03-29T08:32:21.510Z,4932
2018-03-29T08:32:47.096Z,4984
2018-03-29T08:33:12.615Z,5296
2018-03-29T08:33:38.220Z,5268
2018-03-29T08:34:03.736Z,5156
2018-03-29T08:34:29.266Z,5196
2018-03-29T08:34:54.787Z,5364
2018-03-29T08:35:20.267Z,5564
2018-03-29T08:35:45.782Z,5264
2018-03-29T08:36:11.280Z,4792
2018-03-29T08:36:36.837Z,4380
2018-03-29T08:37:02.349Z,4332
2018-03-29T08:37:27.897Z,4780
2018-03-29T08:37:53.401Z,5748
2018-03-29T08:38:18.915Z,6016
2018-03-29T08:38:44.381Z,5500
2018-03-29T08:39:09.907Z,4724
2018-03-29T08:39:35.444Z,4520
2018-03-29T08:40:00.951Z,4252
2018-03-29T08:40:26.548Z,3908
2018-03-29T08:40:51.995Z,3448
2018-03-29T08:41:17.537Z,3068
2018-03-29T08:41:43.089Z,2948
2018-03-29T08:43:07.229Z,2760
2018-03-29T08:43:32.766Z,2768
2018-03-29T08:43:58.257Z,2680
2018-03-29T08:44:23.812Z,2552
2018-03-29T08:44:49.311Z,2448
2018-03-29T08:45:14.784Z,2604
2018-03-29T08:45:40.324Z,3076
2018-03-29T08:46:05.812Z,3400
2018-03-29T08:46:31.313Z,3484
2018-03-29T08:46:56.806Z,3592
2018-03-29T08:47:22.335Z,3912
2018-03-29T08:47:47.860Z,3896
2018-03-29T08:48:13.442Z,3968
2018-03-29T08:48:38.976Z,4116
2018-03-29T08:49:04.490Z,4192
2018-03-29T08:49:30.017Z,3984
2018-03-29T08:49:55.510Z,3804
2018-03-29T08:50:21.050Z,3932
2018-03-29T08:50:46.588Z,4108
2018-03-29T08:51:12.048Z,4172
2018-03-29T08:51:37.660Z,4088
2018-03-29T08:52:03.156Z,4308
2018-03-29T08:52:28.707Z,4524
2018-03-29T08:52:54.221Z,4300
2018-03-29T08:53:19.736Z,3836
2018-03-29T08:53:45.404Z,3632
2018-03-29T08:54:10.964Z,3812
2018-03-29T08:54:36.495Z,3976
2018-03-29T08:55:01.995Z,3784
2018-03-29T08:55:27.544Z,3564
2018-03-29T08:55:53.001Z,3364
2018-03-29T08:56:18.510Z,3548
2018-03-29T08:56:44.025Z,4292
2018-03-29T08:57:09.655Z,5236
2018-03-29T08:57:35.186Z,6052
2018-03-29T08:58:00.668Z,6644
2018-03-29T08:58:26.200Z,7044
2018-03-29T08:58:51.712Z,7208
2018-03-29T08:59:17.223Z,7472
2018-03-29T08:59:42.751Z,7896
2018-03-29T09:00:08.266Z,8324
2018-03-29T09:00:33.795Z,8772
2018-03-29T09:01:58.143Z,9428
2018-03-29T09:02:23.623Z,9448
2018-03-29T09:02:49.130Z,9648
2018-03-29T09:03:14.679Z,9848
2018-03-29T09:03:40.166Z,10052
2018-03-29T09:04:05.757Z,10184
2018-03-29T09:04:31.284Z,10276
2018-03-29T09:04:56.769Z,10428
2018-03-29T09:05:22.218Z,10476
2018-03-29T09:05:47.766Z,10316
2018-03-29T09:06:13.270Z,10244
2018-03-29T09:06:38.780Z,10196
2018-03-29T09:07:04.621Z,10296
2018-03-29T09:07:30.361Z,10300
2018-03-29T09:07:55.815Z,10388
2018-03-29T09:08:21.339Z,10600
2018-03-29T09:08:46.858Z,10700
2018-03-29T09:09:12.388Z,10544
2018-03-29T09:09:37.862Z,10332
2018-03-29T09:10:03.339Z,10236
2018-03-29T09:10:28.815Z,10424
2018-03-29T09:10:54.402Z,10348
2018-03-29T09:11:19.896Z,10064
2018-03-29T09:11:45.494Z,10004
2018-03-29T09:12:10.965Z,10064
2018-03-29T09:12:36.459Z,10188
2018-03-29T09:13:02.045Z,10320
2018-03-29T09:13:27.484Z,10492
2018-03-29T09:13:52.990Z,10580
2018-03-29T09:14:18.458Z,10652
2018-03-29T09:14:43.985Z,10580
2018-03-29T09:15:09.553Z,10640
2018-03-29T09:15:35.042Z,10732
2018-03-29T09:16:00.608Z,10724
2018-03-29T09:16:26.119Z,10560
2018-03-29T09:16:51.585Z,10456
2018-03-29T09:17:17.152Z,10076
2018-03-29T09:17:42.640Z,9996
2018-03-29T09:18:08.212Z,10072
2018-03-29T09:18:33.847Z,10236
2018-03-29T09:18:59.427Z,10164
2018-03-29T09:19:24.884Z,10232
2018-03-29T09:19:50.441Z,10488
2018-03-29T09:20:15.965Z,10648
2018-03-29T09:20:41.504Z,10664
2018-03-29T09:21:07.066Z,10476
2018-03-29T09:21:32.549Z,10008
2018-03-29T09:21:58.034Z,9792
2018-03-29T09:22:23.583Z,9900
2018-03-29T09:22:49.114Z,10248
2018-03-29T09:23:14.535Z,10504
2018-03-29T09:23:40.094Z,10624
2018-03-29T09:24:06.391Z,10756
2018-03-29T09:24:32.040Z,10768
2018-03-29T09:24:57.521Z,10796
2018-03-29T09:25:23.031Z,10380
2018-03-29T09:25:48.590Z,9692
2018-03-29T09:26:14.156Z,8968
2018-03-29T09:26:39.702Z,8356
2018-03-29T09:27:05.249Z,7908
2018-03-29T09:27:30.757Z,7396
2018-03-29T09:27:56.229Z,7436
2018-03-29T09:28:21.778Z,7516
2018-03-29T09:28:47.298Z,7272
2018-03-29T09:29:12.774Z,7196
2018-03-29T09:29:38.362Z,7708
2018-03-29T09:30:03.865Z,8252
2018-03-29T09:30:29.395Z,8972
2018-03-29T09:30:54.904Z,9004
2018-03-29T09:31:20.417Z,8776
2018-03-29T09:31:45.957Z,8504
2018-03-29T09:32:11.443Z,8628
2018-03-29T09:32:36.963Z,9328
2018-03-29T09:33:02.491Z,10016
2018-03-29T09:33:28.058Z,10280
2018-03-29T09:33:53.601Z,9964
2018-03-29T09:34:19.157Z,9768
2018-03-29T09:34:44.690Z,9788
2018-03-29T09:35:10.147Z,9960
2018-03-29T09:35:35.659Z,10024
2018-03-29T09:36:01.178Z,9952
2018-03-29T09:36:26.716Z,9224
2018-03-29T09:36:52.209Z,7844
2018-03-29T09:37:17.691Z,6500
2018-03-29T09:37:43.201Z,5432
2018-03-29T09:38:08.750Z,5304
2018-03-29T09:38:34.250Z,6036
2018-03-29T09:38:59.799Z,6884
2018-03-29T09:39:25.303Z,7456
2018-03-29T09:39:50.873Z,8172
2018-03-29T09:40:16.376Z,9188
2018-03-29T09:40:41.894Z,9996
2018-03-29T09:41:07.326Z,10304
2018-03-29T09:41:32.868Z,10092
2018-03-29T09:41:58.379Z,9096
2018-03-29T09:42:23.918Z,8132
2018-03-29T09:42:49.381Z,6848
2018-03-29T09:43:14.943Z,5964
2018-03-29T09:43:40.470Z,5820
2018-03-29T09:44:06.003Z,5928
2018-03-29T09:44:35.474Z,5868
2018-03-29T09:45:00.948Z,5792
2018-03-29T09:45:26.581Z,6124
2018-03-29T09:45:52.348Z,6488
2018-03-29T09:46:17.981Z,7188
2018-03-29T09:46:43.691Z,7676
2018-03-29T09:47:53.478Z,8976
2018-03-29T09:48:18.948Z,8972
2018-03-29T09:48:44.420Z,8440
2018-03-29T09:49:10.490Z,7948
2018-03-29T09:49:36.388Z,7800
2018-03-29T09:50:01.811Z,7700
2018-03-29T09:50:27.317Z,7344
2018-03-29T09:50:52.803Z,6744
2018-03-29T09:51:18.344Z,6320
2018-03-29T09:51:43.862Z,6172
2018-03-29T09:52:09.380Z,6280
2018-03-29T09:52:34.893Z,6244
2018-03-29T09:53:00.443Z,6080
2018-03-29T09:53:25.948Z,6140
2018-03-29T09:53:51.477Z,6360
2018-03-29T09:54:16.981Z,6964
2018-03-29T09:54:42.553Z,7768
2018-03-29T09:55:08.612Z,8328
2018-03-29T09:55:34.180Z,8676
2018-03-29T09:55:59.713Z,8848
2018-03-29T09:56:25.206Z,9016
2018-03-29T09:56:50.812Z,9180
2018-03-29T09:57:16.399Z,9548
2018-03-29T09:57:41.911Z,9920
2018-03-29T09:58:07.485Z,10268
2018-03-29T09:58:33.058Z,10720
2018-03-29T09:58:58.509Z,11160
2018-03-29T09:59:24.060Z,11580
2018-03-29T09:59:49.503Z,11856
2018-03-29T10:00:15.073Z,12112
2018-03-29T10:00:40.571Z,12332
2018-03-29T10:01:06.114Z,12500
2018-03-29T10:01:31.603Z,12608
2018-03-29T10:01:57.099Z,12708
2018-03-29T10:02:22.642Z,12804
2018-03-29T10:02:48.190Z,12892
2018-03-29T10:03:13.702Z,12968
2018-03-29T10:03:40.524Z,13088
2018-03-29T10:04:05.986Z,13092
2018-03-29T10:04:31.529Z,13108
2018-03-29T10:04:57.000Z,13108
2018-03-29T10:06:06.788Z,13320
2018-03-29T10:06:32.251Z,13384
2018-03-29T10:06:57.751Z,13552
2018-03-29T10:07:23.301Z,13564
2018-03-29T10:07:48.828Z,13500
2018-03-29T10:08:14.452Z,13504
2018-03-29T10:08:39.932Z,13408
2018-03-29T10:09:05.493Z,13408
2018-03-29T10:09:31.028Z,13396
2018-03-29T10:09:56.520Z,13508
2018-03-29T10:10:22.110Z,13536
2018-03-29T10:10:47.610Z,13536
2018-03-29T10:11:13.126Z,13504
2018-03-29T10:11:38.612Z,13496
2018-03-29T10:12:04.146Z,13356
2018-03-29T10:12:29.673Z,13064
2018-03-29T10:12:55.168Z,12548
2018-03-29T10:13:20.688Z,12580
2018-03-29T10:13:46.264Z,12592
2018-03-29T10:14:11.753Z,12468
2018-03-29T10:14:37.279Z,12312
2018-03-29T10:15:02.872Z,11968
2018-03-29T10:15:28.367Z,11644
2018-03-29T10:15:53.969Z,11524
2018-03-29T10:16:19.461Z,11496
2018-03-29T10:16:44.983Z,11484
2018-03-29T10:17:10.476Z,11624
2018-03-29T10:17:35.964Z,11924
2018-03-29T10:18:01.495Z,12032
2018-03-29T10:18:26.977Z,12120
2018-03-29T10:18:53.506Z,12332
2018-03-29T10:19:19.953Z,12644
2018-03-29T10:19:45.472Z,13012
2018-03-29T10:20:10.995Z,13792
2018-03-29T10:20:36.662Z,14424
2018-03-29T10:21:02.232Z,14500
2018-03-29T10:21:27.738Z,14356
2018-03-29T10:21:53.842Z,14432
2018-03-29T10:22:19.698Z,14640
2018-03-29T10:22:45.195Z,15288
2018-03-29T10:23:10.904Z,15604
2018-03-29T10:23:36.686Z,16256
2018-03-29T10:24:02.361Z,15820
2018-03-29T10:24:27.751Z,15212
2018-03-29T10:24:53.258Z,14844
2018-03-29T10:25:18.913Z,14932
2018-03-29T10:25:44.442Z,14904
2018-03-29T10:26:10.958Z,14988
2018-03-29T10:26:36.564Z,14948
2018-03-29T10:27:02.414Z,14612
2018-03-29T10:27:28.070Z,13976
2018-03-29T10:27:53.656Z,13316
2018-03-29T10:28:19.276Z,12744
2018-03-29T10:28:44.767Z,12140
2018-03-29T10:29:10.495Z,11364
2018-03-29T10:29:36.161Z,10776
2018-03-29T10:30:01.762Z,10788
2018-03-29T10:30:27.334Z,11588
2018-03-29T10:30:52.948Z,12036
2018-03-29T10:31:18.602Z,11900
2018-03-29T10:31:44.199Z,11228
2018-03-29T10:32:10.031Z,10116
2018-03-29T10:32:35.678Z,8916
2018-03-29T10:33:01.306Z,7916
2018-03-29T10:33:26.882Z,7340
2018-03-29T10:33:52.757Z,7180
2018-03-29T10:34:18.311Z,7140
2018-03-29T10:34:43.976Z,7276
2018-03-29T10:35:09.583Z,7532
2018-03-29T10:35:35.167Z,7912
2018-03-29T10:36:00.840Z,8348
2018-03-29T10:36:26.592Z,8880
2018-03-29T10:36:52.472Z,9584
2018-03-29T10:37:18.185Z,10420
2018-03-29T10:37:43.787Z,10380
2018-03-29T10:38:09.364Z,9364
2018-03-29T10:38:34.896Z,8008
2018-03-29T10:39:00.826Z,6724
2018-03-29T10:39:26.660Z,5536
2018-03-29T10:39:52.273Z,4744
2018-03-29T10:40:18.020Z,4388
2018-03-29T10:40:43.562Z,4604
2018-03-29T10:41:09.416Z,5636
2018-03-29T10:41:35.079Z,7440
2018-03-29T10:42:00.539Z,8404
2018-03-29T10:43:19.543Z,7316
2018-03-29T10:43:45.210Z,6820
2018-03-29T10:44:11.096Z,6184
2018-03-29T10:44:36.849Z,5864
2018-03-29T10:45:02.431Z,6708
2018-03-29T10:45:28.045Z,8200
2018-03-29T10:45:53.407Z,9316
2018-03-29T10:46:19.068Z,9424
2018-03-29T10:46:44.573Z,8860
2018-03-29T10:47:11.480Z,8296
2018-03-29T10:47:38.969Z,7696
2018-03-29T10:48:04.501Z,7000
2018-03-29T10:48:30.003Z,6452
2018-03-29T10:48:55.539Z,6460
2018-03-29T10:49:21.135Z,7016
2018-03-29T10:49:46.772Z,7468
2018-03-29T10:50:12.280Z,7460
2018-03-29T10:50:37.905Z,7184
2018-03-29T10:51:03.343Z,6792
2018-03-29T10:51:28.829Z,6504
2018-03-29T10:51:54.388Z,6572
2018-03-29T10:52:20.024Z,7240
2018-03-29T10:52:45.552Z,7736
2018-03-29T10:53:11.058Z,7580
2018-03-29T10:53:36.553Z,6904
2018-03-29T10:54:02.118Z,6140
2018-03-29T10:54:27.615Z,5500
2018-03-29T10:54:53.118Z,4964
2018-03-29T10:55:18.739Z,4432
2018-03-29T10:55:44.216Z,4036
2018-03-29T10:56:09.709Z,3812
2018-03-29T10:56:35.222Z,3664
2018-03-29T10:57:00.731Z,3596
2018-03-29T10:57:26.259Z,3568
2018-03-29T10:57:51.827Z,3608
2018-03-29T10:58:17.337Z,3700
2018-03-29T10:58:42.837Z,3752
2018-03-29T10:59:08.348Z,3752
2018-03-29T10:59:33.928Z,3812
2018-03-29T10:59:59.520Z,4104
2018-03-29T11:00:25.232Z,4640
2018-03-29T11:00:50.742Z,5352
2018-03-29T11:01:16.298Z,6024
2018-03-29T11:01:41.882Z,6680
2018-03-29T11:02:07.476Z,7724
2018-03-29T11:02:32.992Z,9324
2018-03-29T11:02:58.491Z,10340
2018-03-29T11:03:24.068Z,10536
2018-03-29T11:03:49.652Z,10108
2018-03-29T11:04:15.156Z,9848
2018-03-29T11:04:40.744Z,9924
2018-03-29T11:05:06.184Z,9804
2018-03-29T11:05:31.627Z,9604
2018-03-29T11:05:57.271Z,9392
2018-03-29T11:06:22.858Z,9444
2018-03-29T11:06:48.346Z,9552
2018-03-29T11:07:13.873Z,9628
2018-03-29T11:07:39.408Z,9372
2018-03-29T11:08:04.993Z,8988
2018-03-29T11:08:30.636Z,8752
2018-03-29T11:08:56.090Z,8640
2018-03-29T11:09:21.627Z,8360
2018-03-29T11:09:47.138Z,7892
2018-03-29T11:10:12.582Z,7732
2018-03-29T11:10:38.092Z,8124
2018-03-29T11:11:03.578Z,8860
2018-03-29T11:11:29.075Z,10028
2018-03-29T11:11:54.574Z,11012
2018-03-29T11:12:20.088Z,11224
2018-03-29T11:12:45.764Z,10708
2018-03-29T11:13:11.315Z,10424
2018-03-29T11:13:36.844Z,10720
2018-03-29T11:14:02.378Z,10708
2018-03-29T11:14:27.921Z,10812
2018-03-29T11:14:53.488Z,11172
2018-03-29T11:15:19.099Z,10868
2018-03-29T11:15:44.733Z,10552
2018-03-29T11:16:10.476Z,10028
2018-03-29T11:16:35.942Z,9424
2018-03-29T11:17:01.807Z,9012
2018-03-29T11:17:26.880Z,8692
2018-03-29T11:17:52.415Z,8304
2018-03-29T11:18:17.903Z,8180
2018-03-29T11:18:43.404Z,7972
2018-03-29T11:19:08.926Z,8332
2018-03-29T11:19:34.424Z,9080
2018-03-29T11:19:59.988Z,9604
2018-03-29T11:20:25.510Z,10336
2018-03-29T11:20:51.150Z,10676
2018-03-29T11:21:16.824Z,10644
2018-03-29T11:21:42.460Z,10492
2018-03-29T11:22:08.370Z,10380
2018-03-29T11:22:33.913Z,10832
2018-03-29T11:22:59.426Z,11520
2018-03-29T11:23:24.814Z,12340
2018-03-29T11:23:50.351Z,12512
2018-03-29T11:24:15.814Z,12408
2018-03-29T11:24:41.374Z,12096
2018-03-29T11:25:06.904Z,11292
2018-03-29T11:25:32.388Z,10564
2018-03-29T11:25:57.963Z,10412
2018-03-29T11:26:23.499Z,10108
2018-03-29T11:26:48.988Z,9688
2018-03-29T11:27:14.486Z,8600
2018-03-29T11:27:40.061Z,7592
2018-03-29T11:28:05.689Z,7328
2018-03-29T11:28:31.162Z,7460
2018-03-29T11:28:56.645Z,8012
2018-03-29T11:29:22.149Z,8612
2018-03-29T11:29:47.742Z,9232
2018-03-29T11:30:13.367Z,9476
2018-03-29T11:30:38.812Z,10000
2018-03-29T11:31:04.369Z,10344
2018-03-29T11:31:29.839Z,10320
2018-03-29T11:31:55.461Z,10452
2018-03-29T11:32:21.156Z,10552
2018-03-29T11:32:46.872Z,10360
2018-03-29T11:33:12.376Z,10052
2018-03-29T11:33:38.002Z,10000
2018-03-29T11:34:03.737Z,10308
2018-03-29T11:34:29.420Z,10748
2018-03-29T11:34:54.991Z,11084
2018-03-29T11:35:20.604Z,11104
2018-03-29T11:35:46.160Z,11268
2018-03-29T11:36:11.746Z,11888
2018-03-29T11:36:37.273Z,13152
2018-03-29T11:37:02.823Z,14220
2018-03-29T11:37:28.412Z,14508
2018-03-29T11:37:53.998Z,14448
2018-03-29T11:38:19.555Z,14052
2018-03-29T11:38:45.111Z,13952
2018-03-29T11:39:10.879Z,12924
2018-03-29T11:39:36.459Z,11996
2018-03-29T11:40:01.920Z,11904
2018-03-29T11:40:27.426Z,11876
2018-03-29T11:40:53.021Z,11996
2018-03-29T11:41:18.593Z,12064
2018-03-29T11:41:44.097Z,11872
2018-03-29T11:42:09.586Z,11268
2018-03-29T11:42:35.303Z,10604
2018-03-29T11:43:01.182Z,10100
2018-03-29T11:43:26.662Z,9980
2018-03-29T11:43:52.253Z,9732
2018-03-29T11:44:17.874Z,9484
2018-03-29T11:44:43.577Z,9612
2018-03-29T11:45:09.066Z,9860
2018-03-29T11:45:34.553Z,10028
2018-03-29T11:46:00.049Z,10596
2018-03-29T11:46:25.615Z,11392
2018-03-29T11:46:51.094Z,11720
2018-03-29T11:47:16.673Z,12012
2018-03-29T11:47:42.283Z,12352
2018-03-29T11:48:07.966Z,12312
2018-03-29T11:48:33.544Z,12712
2018-03-29T11:48:59.084Z,13240
2018-03-29T11:49:24.680Z,13772
2018-03-29T11:49:50.269Z,14728
2018-03-29T11:50:15.827Z,15356
2018-03-29T11:50:41.301Z,15432